createdAt,value
2022-10-04T00:02:31.349Z,1.20
2022-10-04T00:05:03.985Z,1.13
2022-10-04T00:07:35.636Z,1.97
2022-10-04T00:10:07.154Z,1.30
2022-10-04T00:12:39.405Z,1.03
2022-10-04T00:15:19.066Z,1.07
2022-10-04T00:18:02.662Z,1.10
2022-10-04T00:21:04.994Z,1.50
2022-10-04T00:23:47.650Z,1.40
2022-10-04T00:26:57.865Z,1.43
2022-10-04T00:29:32.933Z,0.93
2022-10-04T00:32:31.711Z,1.33
2022-10-04T00:35:01.381Z,1.23
2022-10-04T00:37:49.345Z,1.80
2022-10-04T00:40:21.007Z,1.73
2022-10-04T00:42:56.122Z,1.50
2022-10-04T00:45:37.860Z,1.27
2022-10-04T00:48:31.121Z,1.57
2022-10-04T00:51:06.875Z,1.37
2022-10-04T00:53:49.165Z,1.50
2022-10-04T00:56:24.587Z,1.97
2022-10-04T00:59:27.978Z,2.17
2022-10-04T01:02:00.241Z,1.80
2022-10-04T01:04:35.860Z,2.00
2022-10-04T01:07:06.626Z,1.47
2022-10-04T01:09:37.941Z,1.57
2022-10-04T01:12:12.091Z,1.30
2022-10-04T01:14:48.643Z,1.87
2022-10-04T01:17:16.588Z,1.57
2022-10-04T01:19:53.698Z,1.07
2022-10-04T01:22:36.186Z,1.80
2022-10-04T01:25:04.664Z,1.90
2022-10-04T01:27:38.651Z,1.00
2022-10-04T01:30:10.257Z,1.50
2022-10-04T01:32:39.695Z,1.07
2022-10-04T01:35:10.881Z,1.27
2022-10-04T01:37:40.832Z,1.20
2022-10-04T01:40:10.803Z,1.97
2022-10-04T01:42:46.066Z,0.90
2022-10-04T01:45:20.574Z,1.63
2022-10-04T01:47:54.538Z,1.57
2022-10-04T01:50:29.974Z,2.53
2022-10-04T01:53:09.303Z,1.33
2022-10-04T01:55:41.775Z,1.67
2022-10-04T01:58:14.969Z,1.67
2022-10-04T02:00:52.483Z,1.33
2022-10-04T02:03:25.508Z,1.20
2022-10-04T02:05:59.633Z,1.40
2022-10-04T02:08:32.573Z,1.70
2022-10-04T02:11:02.181Z,1.90
2022-10-04T02:13:37.016Z,2.40
2022-10-04T02:16:09.785Z,1.57
2022-10-04T02:18:39.563Z,1.43
2022-10-04T02:21:08.451Z,1.53
2022-10-04T02:23:39.863Z,1.47
2022-10-04T02:26:08.480Z,1.43
2022-10-04T02:28:37.493Z,1.30
2022-10-04T02:31:25.026Z,1.53
2022-10-04T02:33:56.530Z,1.60
2022-10-04T02:36:27.287Z,2.07
2022-10-04T02:39:03.100Z,2.00
2022-10-04T02:41:34.413Z,1.50
2022-10-04T02:44:10.866Z,2.07
2022-10-04T02:46:46.145Z,1.30
2022-10-04T02:49:25.061Z,1.90
2022-10-04T02:52:00.443Z,1.77
2022-10-04T02:54:33.702Z,1.57
2022-10-04T02:57:02.715Z,1.83
2022-10-04T02:59:35.261Z,2.17
2022-10-04T03:02:03.610Z,1.50
2022-10-04T03:04:34.514Z,1.90
2022-10-04T03:07:05.864Z,1.63
2022-10-04T03:09:37.560Z,1.97
2022-10-04T03:12:06.270Z,1.30
2022-10-04T03:14:34.953Z,1.43
2022-10-04T03:17:05.367Z,1.50
2022-10-04T03:19:35.484Z,1.50
2022-10-04T03:22:08.395Z,1.63
2022-10-04T03:24:46.439Z,1.80
2022-10-04T03:27:17.840Z,1.60
2022-10-04T03:29:46.551Z,1.10
2022-10-04T03:32:16.777Z,1.50
2022-10-04T03:34:53.577Z,1.90
2022-10-04T03:37:21.663Z,1.93
2022-10-04T03:39:53.362Z,1.70
2022-10-04T03:42:24.289Z,1.53
2022-10-04T03:44:55.054Z,1.63
2022-10-04T03:47:26.520Z,1.67
2022-10-04T03:49:55.984Z,1.50
2022-10-04T03:52:27.276Z,1.40
2022-10-04T03:55:01.759Z,1.50
2022-10-04T03:57:30.408Z,1.47
2022-10-04T03:59:59.520Z,1.50
2022-10-04T04:02:34.076Z,1.50
2022-10-04T04:05:10.694Z,1.70
2022-10-04T04:07:42.410Z,1.57
2022-10-04T04:10:19.723Z,1.53
2022-10-04T04:12:53.402Z,2.40
2022-10-04T04:15:23.197Z,2.00
2022-10-04T04:17:53.942Z,1.77
2022-10-04T04:20:25.967Z,1.93
2022-10-04T04:23:01.695Z,2.00
2022-10-04T04:25:35.592Z,1.40
2022-10-04T04:28:14.001Z,1.10
2022-10-04T04:30:46.311Z,1.13
2022-10-04T04:33:26.952Z,1.70
2022-10-04T04:36:04.344Z,1.50
2022-10-04T04:38:32.693Z,1.67
2022-10-04T04:41:09.963Z,1.40
2022-10-04T04:43:38.105Z,1.50
2022-10-04T04:46:28.389Z,2.27
2022-10-04T04:49:02.392Z,1.90
2022-10-04T04:51:32.930Z,1.90
2022-10-04T04:54:03.459Z,1.50
2022-10-04T04:56:33.718Z,1.77
2022-10-04T04:59:05.898Z,1.80
2022-10-04T05:01:36.587Z,1.70
2022-10-04T05:04:06.634Z,1.60
2022-10-04T05:06:36.318Z,1.80
2022-10-04T05:09:04.627Z,2.13
2022-10-04T05:11:37.344Z,1.43
2022-10-04T05:14:08.951Z,2.10
2022-10-04T05:16:42.326Z,2.20
2022-10-04T05:19:16.223Z,2.50
2022-10-04T05:21:46.504Z,2.00
2022-10-04T05:24:20.767Z,2.33
2022-10-04T05:26:54.106Z,2.13
2022-10-04T05:29:25.714Z,2.50
2022-10-04T05:32:01.499Z,2.47
2022-10-04T05:34:35.249Z,2.00
2022-10-04T05:37:26.098Z,2.63
2022-10-04T05:40:04.947Z,2.27
2022-10-04T05:42:41.544Z,2.07
2022-10-04T05:45:19.519Z,2.40
2022-10-04T05:47:50.550Z,2.20
2022-10-04T05:50:21.595Z,2.40
2022-10-04T05:52:52.458Z,2.80
2022-10-04T05:55:28.593Z,2.53
2022-10-04T05:58:25.601Z,2.37
2022-10-04T06:01:19.638Z,2.10
2022-10-04T06:04:17.046Z,2.20
2022-10-04T06:06:51.714Z,1.80
2022-10-04T06:09:39.423Z,2.00
2022-10-04T06:12:14.609Z,2.17
2022-10-04T06:14:58.875Z,1.90
2022-10-04T06:17:42.353Z,2.37
2022-10-04T06:20:37.515Z,2.93
2022-10-04T06:23:13.009Z,2.77
2022-10-04T06:25:47.150Z,2.53
2022-10-04T06:28:18.506Z,2.30
2022-10-04T06:31:03.238Z,2.87
2022-10-04T06:33:45.662Z,2.40
2022-10-04T06:36:33.551Z,2.07
2022-10-04T06:39:14.171Z,2.67
2022-10-04T06:42:21.538Z,2.63
2022-10-04T06:45:13.620Z,2.60
2022-10-04T06:48:02.741Z,2.90
2022-10-04T06:50:41.197Z,2.40
2022-10-04T06:53:22.165Z,2.80
2022-10-04T06:56:05.095Z,1.80
2022-10-04T06:58:54.158Z,2.13
2022-10-04T07:01:28.215Z,2.70
2022-10-04T07:04:06.927Z,2.30
2022-10-04T07:06:40.870Z,2.73
2022-10-04T07:09:19.992Z,2.40
2022-10-04T07:11:53.896Z,1.90
2022-10-04T07:14:26.139Z,2.83
2022-10-04T07:16:59.711Z,2.67
2022-10-04T07:19:36.238Z,2.60
2022-10-04T07:22:17.607Z,2.00
2022-10-04T07:25:08.624Z,1.50
2022-10-04T07:27:48.540Z,1.90
2022-10-04T07:30:17.885Z,1.87
2022-10-04T07:32:47.661Z,2.33
2022-10-04T07:35:34.901Z,2.97
2022-10-04T07:38:11.908Z,1.60
2022-10-04T07:40:44.103Z,1.83
2022-10-04T07:43:21.010Z,2.13
2022-10-04T07:45:50.386Z,1.77
2022-10-04T07:48:23.350Z,2.40
2022-10-04T07:51:04.839Z,1.70
2022-10-04T07:53:39.698Z,1.83
2022-10-04T07:56:11.690Z,1.43
2022-10-04T07:58:47.476Z,1.87
2022-10-04T08:01:28.037Z,2.43
2022-10-04T08:04:12.572Z,1.77
2022-10-04T08:06:56.675Z,1.77
2022-10-04T08:09:48.693Z,1.83
2022-10-04T08:12:22.514Z,2.30
2022-10-04T08:15:09.122Z,2.27
2022-10-04T08:17:53.378Z,2.60
2022-10-04T08:20:35.497Z,2.47
2022-10-04T08:23:32.224Z,3.10
2022-10-04T08:26:14.018Z,3.27
2022-10-04T08:29:08.097Z,2.67
2022-10-04T08:31:52.656Z,2.93
2022-10-04T08:34:34.276Z,2.33
2022-10-04T08:37:13.957Z,2.30
2022-10-04T08:40:02.732Z,2.80
2022-10-04T08:43:05.648Z,2.13
2022-10-04T08:46:18.740Z,2.67
2022-10-04T08:49:09.862Z,2.30
2022-10-04T08:52:05.491Z,2.33
2022-10-04T08:54:58.185Z,2.93
2022-10-04T08:57:48.745Z,3.57
2022-10-04T09:00:23.104Z,3.20
2022-10-04T09:03:27.276Z,2.40
2022-10-04T09:06:16.861Z,3.40
2022-10-04T09:09:17.596Z,2.03
2022-10-04T09:12:12.330Z,2.77
2022-10-04T09:14:57.225Z,2.30
2022-10-04T09:17:39.762Z,2.67
2022-10-04T09:20:39.123Z,2.70
2022-10-04T09:23:20.723Z,2.57
2022-10-04T09:25:56.398Z,2.37
2022-10-04T09:29:10.233Z,2.50
2022-10-04T09:32:16.562Z,2.03
2022-10-04T09:35:18.630Z,1.80
2022-10-04T09:38:03.876Z,2.40
2022-10-04T09:40:49.067Z,1.53
2022-10-04T09:43:55.235Z,1.87
2022-10-04T09:46:56.218Z,1.70
2022-10-04T09:49:44.378Z,1.70
2022-10-04T09:52:28.152Z,1.43
2022-10-04T09:55:24.102Z,1.33
2022-10-04T09:58:11.887Z,1.50
2022-10-04T10:00:47.523Z,1.40
2022-10-04T10:03:51.045Z,1.20
2022-10-04T10:06:43.038Z,1.50
2022-10-04T10:09:21.378Z,1.00
2022-10-04T10:12:16.159Z,0.93
2022-10-04T10:15:08.903Z,1.10
2022-10-04T10:17:45.127Z,0.97
2022-10-04T10:20:34.915Z,1.03
2022-10-04T10:23:29.607Z,1.00
2022-10-04T10:26:25.028Z,1.33
2022-10-04T10:29:28.226Z,0.90
2022-10-04T10:32:09.701Z,0.73
2022-10-04T10:34:59.074Z,1.20
2022-10-04T10:37:40.891Z,0.70
2022-10-04T10:40:28.012Z,0.87
2022-10-04T10:43:08.285Z,0.65
2022-10-04T10:45:58.936Z,0.80
2022-10-04T10:48:55.836Z,0.80
2022-10-04T10:52:06.211Z,0.68
2022-10-04T10:55:00.129Z,0.93
2022-10-04T10:57:54.439Z,1.38
2022-10-04T11:00:24.130Z,0.95
2022-10-04T11:03:32.325Z,0.90
2022-10-04T11:06:30.831Z,1.25
2022-10-04T11:09:35.150Z,0.55
2022-10-04T11:15:51.779Z,0.90
2022-10-04T11:18:59.839Z,1.02
2022-10-04T11:22:09.710Z,0.75
2022-10-04T11:25:18.542Z,0.80
2022-10-04T11:27:57.417Z,0.63
2022-10-04T11:30:27.352Z,0.98
2022-10-04T11:33:44.826Z,0.65
2022-10-04T11:37:00.916Z,1.15
2022-10-04T11:39:50.054Z,0.90
2022-10-04T11:42:30.131Z,0.82
2022-10-04T11:45:38.456Z,0.85
2022-10-04T11:48:18.954Z,0.70
2022-10-04T11:51:04.134Z,2.22
2022-10-04T11:54:03.645Z,0.90
2022-10-04T11:57:05.639Z,0.63
2022-10-04T11:59:46.966Z,0.93
2022-10-04T12:02:41.147Z,0.90
2022-10-04T12:05:46.759Z,0.73
2022-10-04T12:08:25.216Z,1.05
2022-10-04T12:11:52.574Z,0.63
2022-10-04T12:14:34.922Z,0.77
2022-10-04T12:17:35.159Z,0.60
2022-10-04T12:20:18.998Z,0.82
2022-10-04T12:23:11.223Z,0.38
2022-10-04T12:26:09.834Z,0.80
2022-10-04T12:29:10.157Z,0.40
2022-10-04T12:31:45.108Z,0.70
2022-10-04T12:34:21.468Z,0.88
2022-10-04T12:37:10.603Z,0.70
2022-10-04T12:39:48.614Z,0.98
2022-10-04T12:42:32.402Z,0.65
2022-10-04T12:45:17.652Z,0.70
2022-10-04T12:47:56.681Z,0.85
2022-10-04T12:50:32.974Z,0.50
2022-10-04T12:53:11.694Z,0.65
2022-10-04T12:56:02.943Z,1.17
2022-10-04T12:58:43.504Z,0.55
2022-10-04T13:01:18.967Z,0.98
2022-10-04T13:04:08.820Z,0.98
2022-10-04T13:06:53.688Z,0.50
2022-10-04T13:09:31.508Z,0.40
2022-10-04T13:12:15.622Z,0.73
2022-10-04T13:15:00.249Z,0.73
2022-10-04T13:17:39.133Z,0.55
2022-10-04T13:20:47.524Z,0.55
2022-10-04T13:23:26.009Z,0.70
2022-10-04T13:26:22.780Z,0.70
2022-10-04T13:28:57.407Z,0.80
2022-10-04T13:31:33.198Z,0.82
2022-10-04T13:34:12.219Z,0.77
2022-10-04T13:36:58.403Z,0.40
2022-10-04T13:39:42.713Z,0.47
2022-10-04T13:42:27.550Z,0.50
2022-10-04T13:45:06.600Z,0.90
2022-10-04T13:47:58.074Z,0.93
2022-10-04T13:50:45.364Z,0.77
2022-10-04T13:53:53.996Z,0.70
2022-10-04T13:56:45.890Z,0.73
2022-10-04T13:59:24.077Z,0.80
2022-10-04T14:02:21.241Z,0.95
2022-10-04T14:05:40.282Z,0.52
2022-10-04T14:08:33.590Z,0.65
2022-10-04T14:11:33.585Z,0.50
2022-10-04T14:14:30.291Z,0.50
2022-10-04T14:17:46.327Z,0.77
2022-10-04T14:21:02.686Z,0.40
2022-10-04T14:23:56.009Z,0.68
2022-10-04T14:26:56.326Z,0.70
2022-10-04T14:29:56.627Z,0.60
2022-10-04T14:32:59.164Z,0.60
2022-10-04T14:35:31.301Z,0.57
2022-10-04T14:38:38.906Z,0.55
2022-10-04T14:41:52.975Z,0.80
2022-10-04T14:45:05.879Z,0.50
2022-10-04T14:48:01.954Z,0.52
2022-10-04T14:50:44.860Z,0.50
2022-10-04T14:53:22.426Z,1.00
2022-10-04T14:56:09.300Z,0.70
2022-10-04T14:58:50.834Z,0.70
2022-10-04T15:01:21.731Z,0.70
2022-10-04T15:04:11.384Z,0.45
2022-10-04T15:06:48.742Z,0.57
2022-10-04T15:09:41.000Z,0.57
2022-10-04T15:13:09.491Z,0.47
2022-10-04T15:15:53.173Z,0.60
2022-10-04T15:18:33.813Z,0.52
2022-10-04T15:21:06.916Z,0.60
2022-10-04T15:23:39.321Z,0.60
2022-10-04T15:26:47.516Z,0.63
2022-10-04T15:29:26.631Z,0.67
2022-10-04T15:32:07.328Z,0.60
2022-10-04T15:34:42.674Z,0.60
2022-10-04T15:37:24.121Z,0.70
2022-10-04T15:40:14.115Z,0.30
2022-10-04T15:43:00.133Z,0.60
2022-10-04T15:45:48.928Z,0.70
2022-10-04T15:48:35.603Z,0.60
2022-10-04T15:51:15.189Z,0.40
2022-10-04T15:53:56.037Z,0.73
2022-10-04T15:56:36.374Z,0.80
2022-10-04T15:59:26.230Z,0.60
2022-10-04T16:02:22.709Z,0.95
2022-10-04T16:05:04.494Z,0.60
2022-10-04T16:07:43.064Z,0.77
2022-10-04T16:10:20.558Z,0.80
2022-10-04T16:13:20.083Z,1.03
2022-10-04T16:16:08.049Z,0.70
2022-10-04T16:18:47.691Z,1.10
2022-10-04T16:21:29.583Z,1.23
2022-10-04T16:24:30.770Z,1.13
2022-10-04T16:27:18.028Z,1.10
2022-10-04T16:30:14.847Z,0.90
2022-10-04T16:33:00.465Z,1.10
2022-10-04T16:35:33.341Z,1.00
2022-10-04T16:38:09.080Z,0.90
2022-10-04T16:40:48.125Z,0.70
2022-10-04T16:43:28.265Z,1.17
2022-10-04T16:46:11.979Z,1.07
2022-10-04T16:48:50.966Z,1.43
2022-10-04T16:51:50.751Z,2.87
2022-10-04T16:54:42.196Z,3.70
2022-10-04T16:57:19.650Z,6.70
2022-10-04T17:00:00.593Z,6.60
2022-10-04T17:02:52.576Z,5.17
2022-10-04T17:05:42.101Z,6.10
2022-10-04T17:08:33.003Z,6.47
2022-10-04T17:11:38.600Z,6.83
2022-10-04T17:14:32.759Z,6.70
2022-10-04T17:17:11.995Z,4.60
2022-10-04T17:19:48.071Z,5.20
2022-10-04T17:22:33.397Z,3.60
2022-10-04T17:25:16.045Z,3.27
2022-10-04T17:27:51.308Z,2.77
2022-10-04T17:30:22.629Z,2.73
2022-10-04T17:33:08.741Z,2.20
2022-10-04T17:35:59.359Z,1.87
2022-10-04T17:38:36.158Z,1.90
2022-10-04T17:41:16.502Z,2.00
2022-10-04T17:44:05.272Z,1.87
2022-10-04T17:46:41.219Z,2.03
2022-10-04T17:49:37.845Z,2.37
2022-10-04T17:52:33.560Z,4.70
2022-10-04T17:55:17.741Z,7.27
2022-10-04T17:57:51.884Z,6.93
2022-10-04T18:00:21.941Z,6.00
2022-10-04T18:03:14.006Z,5.40
2022-10-04T18:05:51.083Z,4.80
2022-10-04T18:08:24.735Z,5.00
2022-10-04T18:10:56.099Z,4.30
2022-10-04T18:13:33.265Z,3.70
2022-10-04T18:16:09.336Z,3.40
2022-10-04T18:18:41.932Z,3.83
2022-10-04T18:21:23.013Z,4.20
2022-10-04T18:23:57.025Z,3.57
2022-10-04T18:26:27.918Z,3.03
2022-10-04T18:29:03.895Z,3.33
2022-10-04T18:31:38.313Z,3.13
2022-10-04T18:34:19.448Z,3.07
2022-10-04T18:36:57.797Z,2.60
2022-10-04T18:39:25.968Z,2.93
2022-10-04T18:42:12.912Z,2.70
2022-10-04T18:44:49.001Z,2.80
2022-10-04T18:47:21.310Z,4.70
2022-10-04T18:49:52.370Z,5.03
2022-10-04T18:52:32.978Z,6.07
2022-10-04T18:55:15.543Z,7.67
2022-10-04T18:58:06.146Z,9.33
2022-10-04T19:00:58.344Z,9.07
2022-10-04T19:03:34.661Z,8.60
2022-10-04T19:06:08.788Z,7.87
2022-10-04T19:08:47.096Z,8.23
2022-10-04T19:11:20.135Z,8.57
2022-10-04T19:13:56.741Z,8.33
2022-10-04T19:16:40.944Z,7.83
2022-10-04T19:19:32.463Z,7.37
2022-10-04T19:22:13.662Z,8.13
2022-10-04T19:25:06.209Z,8.37
2022-10-04T19:27:38.847Z,8.37
2022-10-04T19:30:21.361Z,9.10
2022-10-04T19:33:04.672Z,10.17
2022-10-04T19:35:50.411Z,11.70
2022-10-04T19:38:40.378Z,11.83
2022-10-04T19:41:19.341Z,11.10
2022-10-04T19:43:54.239Z,10.70
2022-10-04T19:46:36.055Z,10.87
2022-10-04T19:49:14.999Z,10.57
2022-10-04T19:51:51.468Z,10.80
2022-10-04T19:54:25.951Z,14.20
2022-10-04T19:56:58.092Z,13.00
2022-10-04T19:59:36.580Z,14.03
2022-10-04T20:02:09.581Z,14.47
2022-10-04T20:04:39.490Z,11.23
2022-10-04T20:07:18.913Z,11.47
2022-10-04T20:09:55.594Z,11.03
2022-10-04T20:12:34.971Z,10.40
2022-10-04T20:15:26.542Z,11.10
2022-10-04T20:17:56.404Z,9.93
2022-10-04T20:21:00.311Z,10.53
2022-10-04T20:23:56.743Z,9.63
2022-10-04T20:26:55.986Z,7.93
2022-10-04T20:30:07.042Z,9.03
2022-10-04T20:32:58.011Z,8.13
2022-10-04T20:36:09.577Z,9.10
2022-10-04T20:38:53.690Z,7.10
2022-10-04T20:42:05.354Z,7.47
2022-10-04T20:44:45.180Z,6.27
2022-10-04T20:47:24.772Z,5.70
2022-10-04T20:49:56.312Z,5.43
2022-10-04T20:52:26.815Z,5.37
2022-10-04T20:54:57.190Z,6.43
2022-10-04T20:57:26.526Z,5.57
2022-10-04T20:59:55.599Z,6.70
2022-10-04T21:02:25.171Z,5.33
2022-10-04T21:04:53.813Z,5.47
2022-10-04T21:07:23.570Z,5.10
2022-10-04T21:09:53.232Z,5.03
2022-10-04T21:12:31.786Z,6.03
2022-10-04T21:15:06.165Z,6.40
2022-10-04T21:17:38.449Z,6.70
2022-10-04T21:20:14.579Z,7.07
2022-10-04T21:22:43.179Z,5.47
2022-10-04T21:25:34.452Z,6.40
2022-10-04T21:28:39.006Z,4.97
2022-10-04T21:31:08.522Z,5.10
2022-10-04T21:33:37.678Z,4.83
2022-10-04T21:36:06.795Z,4.50
2022-10-04T21:38:34.871Z,4.07
2022-10-04T21:41:02.881Z,4.00
2022-10-04T21:43:31.233Z,5.07
2022-10-04T21:45:59.126Z,4.47
2022-10-04T21:48:28.870Z,4.40
2022-10-04T21:50:57.384Z,4.33
2022-10-04T21:53:25.467Z,3.93
2022-10-04T21:55:53.524Z,4.13
2022-10-04T21:58:21.413Z,4.33
2022-10-04T22:00:49.601Z,3.80
2022-10-04T22:03:17.574Z,4.37
2022-10-04T22:05:46.906Z,4.03
2022-10-04T22:08:14.907Z,4.47
2022-10-04T22:10:43.509Z,4.20
2022-10-04T22:13:11.371Z,4.00
2022-10-04T22:15:39.390Z,3.80
2022-10-04T22:18:07.552Z,3.93
2022-10-04T22:20:35.701Z,4.43
2022-10-04T22:23:11.283Z,4.00
2022-10-04T22:25:41.915Z,4.00
2022-10-04T22:28:19.212Z,3.63
2022-10-04T22:30:49.482Z,3.43
2022-10-04T22:33:28.870Z,3.50
2022-10-04T22:35:58.905Z,3.83
2022-10-04T22:38:28.319Z,3.97
2022-10-04T22:40:56.291Z,4.03
2022-10-04T22:43:24.474Z,3.90
2022-10-04T22:45:53.600Z,3.70
2022-10-04T22:48:21.670Z,3.17
2022-10-04T22:50:51.346Z,3.90
2022-10-04T22:53:21.994Z,3.73
2022-10-04T22:55:55.906Z,4.07
2022-10-04T22:58:24.178Z,3.90
2022-10-04T23:00:52.093Z,3.47
2022-10-04T23:03:29.025Z,3.10
2022-10-04T23:05:57.088Z,3.63
2022-10-04T23:08:25.063Z,3.00
2022-10-04T23:10:56.740Z,3.00
2022-10-04T23:13:26.270Z,3.53
2022-10-04T23:15:58.698Z,3.60
2022-10-04T23:18:28.422Z,3.30
2022-10-04T23:20:59.056Z,2.73
2022-10-04T23:23:29.142Z,3.07
2022-10-04T23:25:58.842Z,3.23
2022-10-04T23:28:26.819Z,3.13
2022-10-04T23:31:03.318Z,2.83
2022-10-04T23:33:31.470Z,3.30
2022-10-04T23:35:59.423Z,3.10
2022-10-04T23:38:27.424Z,2.73
2022-10-04T23:40:55.513Z,2.83
2022-10-04T23:43:26.923Z,3.33
2022-10-04T23:45:56.681Z,3.27
2022-10-04T23:48:28.095Z,2.97
2022-10-04T23:50:59.778Z,2.90
2022-10-04T23:53:31.554Z,3.13
2022-10-04T23:56:03.910Z,3.40
2022-10-04T23:58:35.807Z,3.20
